Plainedge, New York
Current Conditions -  °F | °C
As of 5:53 PM on Thursday 27 Nov 2014 (Local Time) from KFRG Reporting Station
Overcast Overcast  
Wind Chill: 32°   Ceiling: 2200
Heat Index: 38°   Visibility: 10mi
Dew Point: 30°   Wind: 8mph
Humidity: 73%   Direction: 330°NNW
Pressure: 30.01"   Gusts: NA
Location:  40.7255°N, 73.5165°W
Report Text: KFRG 272253Z 33007KT 10SM OVC022 03/M01 A3001 RMK AO2 SLP164 T00331011
Loading
Personal Weather Stations






























Interactive Weather Map New forecast layout! Learn more

10-Day Weather Forecast

Advertisements
Track Severe Weather on mobile